createdAt,value
2023-11-30T00:00:41.850Z,100396.44
2023-11-30T00:03:08.475Z,100395.94
2023-11-30T00:05:35.104Z,100396.97
2023-11-30T00:08:01.736Z,100395.28
2023-11-30T00:10:28.201Z,100402.81
2023-11-30T00:12:59.881Z,100397.59
2023-11-30T00:15:26.479Z,100401.63
2023-11-30T00:17:53.290Z,100404.22
2023-11-30T00:20:19.934Z,100389.06
2023-11-30T00:22:48.050Z,100400.94
2023-11-30T00:25:14.675Z,100401.06
2023-11-30T00:27:41.139Z,100391.75
2023-11-30T00:30:08.562Z,100395.69
2023-11-30T00:32:36.941Z,100389.34
2023-11-30T00:35:03.635Z,100384.13
2023-11-30T00:37:30.160Z,100378.84
2023-11-30T00:39:56.595Z,100374.22
2023-11-30T00:42:23.351Z,100372.22
2023-11-30T00:44:50.008Z,100366.75
2023-11-30T00:47:16.644Z,100375.44
2023-11-30T00:49:43.104Z,100368.34
2023-11-30T00:52:09.591Z,100371.81
2023-11-30T00:54:36.239Z,100364.81
2023-11-30T00:57:02.970Z,100365.72
2023-11-30T00:59:29.443Z,100370.97
2023-11-30T01:01:55.897Z,100374.59
2023-11-30T01:04:25.569Z,100373.78
2023-11-30T01:06:52.299Z,100372.94
2023-11-30T01:09:18.792Z,100366.00
2023-11-30T01:11:45.315Z,100364.34
2023-11-30T01:14:11.878Z,100365.22
2023-11-30T01:16:38.531Z,100357.34
2023-11-30T01:19:05.098Z,100363.13
2023-11-30T01:21:32.221Z,100355.97
2023-11-30T01:23:59.129Z,100352.09
2023-11-30T01:26:25.930Z,100348.13
2023-11-30T01:28:52.354Z,100348.38
2023-11-30T01:31:19.026Z,100349.47
2023-11-30T01:33:45.585Z,100345.31
2023-11-30T01:36:12.206Z,100348.50
2023-11-30T01:38:41.699Z,100352.41
2023-11-30T01:41:08.658Z,100339.25
2023-11-30T01:43:35.113Z,100341.78
2023-11-30T01:46:04.564Z,100340.69
2023-11-30T01:48:32.325Z,100351.97
2023-11-30T01:50:59.507Z,100345.75
2023-11-30T01:53:26.131Z,100349.94
2023-11-30T01:55:52.842Z,100354.28
2023-11-30T01:58:19.762Z,100345.91
2023-11-30T02:00:48.715Z,100338.53
2023-11-30T02:03:17.478Z,100344.66
2023-11-30T02:05:44.003Z,100347.91
2023-11-30T02:08:10.782Z,100343.25
2023-11-30T02:10:37.423Z,100343.78
2023-11-30T02:13:04.118Z,100337.44
2023-11-30T02:15:30.674Z,100332.91
2023-11-30T02:17:57.229Z,100338.88
2023-11-30T02:20:23.760Z,100334.41
2023-11-30T02:22:50.402Z,100339.66
2023-11-30T02:25:17.107Z,100337.16
2023-11-30T02:27:43.742Z,100326.56
2023-11-30T02:30:13.107Z,100325.81
2023-11-30T02:32:39.839Z,100321.19
2023-11-30T02:35:06.870Z,100324.56
2023-11-30T02:37:33.340Z,100311.59
2023-11-30T02:39:59.864Z,100318.03
2023-11-30T02:42:26.419Z,100325.09
2023-11-30T02:44:55.765Z,100322.81
2023-11-30T02:47:22.231Z,100318.97
2023-11-30T02:49:48.851Z,100321.81
2023-11-30T02:52:15.456Z,100313.63
2023-11-30T02:54:41.916Z,100314.19
2023-11-30T02:57:08.647Z,100310.56
2023-11-30T02:59:35.462Z,100314.19
2023-11-30T03:02:02.099Z,100316.31
2023-11-30T03:04:28.810Z,100310.28
2023-11-30T03:07:00.886Z,100312.63
2023-11-30T03:09:27.480Z,100307.72
2023-11-30T03:11:54.009Z,100308.59
2023-11-30T03:14:20.635Z,100307.28
2023-11-30T03:16:47.095Z,100313.97
2023-11-30T03:19:17.089Z,100312.06
2023-11-30T03:21:44.751Z,100310.16
2023-11-30T03:24:11.743Z,100312.66
2023-11-30T03:26:38.409Z,100301.38
2023-11-30T03:29:04.959Z,100300.41
2023-11-30T03:31:34.278Z,100304.75
2023-11-30T03:34:02.000Z,100303.81
2023-11-30T03:36:28.637Z,100308.25
2023-11-30T03:38:57.091Z,100305.63
2023-11-30T03:41:24.425Z,100305.19
2023-11-30T03:43:51.295Z,100310.16
2023-11-30T03:46:17.741Z,100301.69
2023-11-30T03:48:44.337Z,100300.84
2023-11-30T03:51:11.845Z,100300.84
2023-11-30T03:53:38.533Z,100308.38
2023-11-30T03:56:05.421Z,100307.16
2023-11-30T03:58:32.035Z,100312.19
2023-11-30T04:00:58.599Z,100315.22
2023-11-30T04:03:25.050Z,100311.22
2023-11-30T04:05:51.708Z,100309.59
2023-11-30T04:08:18.654Z,100313.16
2023-11-30T04:10:45.578Z,100311.22
2023-11-30T04:13:12.267Z,100306.44
2023-11-30T04:15:38.754Z,100301.72
2023-11-30T04:18:05.567Z,100304.25
2023-11-30T04:20:32.384Z,100305.91
2023-11-30T04:22:58.889Z,100304.25
2023-11-30T04:25:25.611Z,100294.50
2023-11-30T04:27:52.078Z,100303.16
2023-11-30T04:30:19.042Z,100295.09
2023-11-30T04:32:45.687Z,100295.81
2023-11-30T04:35:12.254Z,100295.69
2023-11-30T04:37:38.734Z,100291.25
2023-11-30T04:40:05.829Z,100299.94
2023-11-30T04:42:32.387Z,100294.75
2023-11-30T04:44:58.884Z,100300.94
2023-11-30T04:47:26.134Z,100305.25
2023-11-30T04:49:58.553Z,100300.78
2023-11-30T04:52:24.978Z,100306.84
2023-11-30T04:54:51.932Z,100301.59
2023-11-30T04:57:18.712Z,100292.88
2023-11-30T04:59:46.604Z,100292.00
2023-11-30T05:02:13.188Z,100303.38
2023-11-30T05:04:39.819Z,100301.59
2023-11-30T05:07:06.537Z,100297.13
2023-11-30T05:09:33.245Z,100295.41
2023-11-30T05:12:03.024Z,100296.34
2023-11-30T05:14:29.614Z,100300.00
2023-11-30T05:16:56.295Z,100295.69
2023-11-30T05:19:23.456Z,100294.56
2023-11-30T05:21:49.957Z,100302.22
2023-11-30T05:24:18.658Z,100300.34
2023-11-30T05:26:45.255Z,100299.34
2023-11-30T05:29:11.761Z,100300.13
2023-11-30T05:31:38.375Z,100299.28
2023-11-30T05:34:04.835Z,100288.66
2023-11-30T05:36:31.500Z,100288.75
2023-11-30T05:38:58.008Z,100292.97
2023-11-30T05:41:27.539Z,100292.47
2023-11-30T05:43:54.019Z,100293.31
2023-11-30T05:46:20.914Z,100294.31
2023-11-30T05:48:47.733Z,100300.47
2023-11-30T05:51:14.747Z,100300.47
2023-11-30T05:53:41.425Z,100292.63
2023-11-30T05:56:12.372Z,100300.47
2023-11-30T05:58:38.856Z,100295.16
2023-11-30T06:01:05.730Z,100302.03
2023-11-30T06:03:35.452Z,100297.78
2023-11-30T06:06:02.075Z,100308.19
2023-11-30T06:08:28.591Z,100305.50
2023-11-30T06:10:59.372Z,100300.19
2023-11-30T06:13:26.101Z,100311.53
2023-11-30T06:15:54.028Z,100317.44
2023-11-30T06:18:20.655Z,100311.44
2023-11-30T06:20:47.351Z,100318.41
2023-11-30T06:23:13.910Z,100325.50
2023-11-30T06:25:41.366Z,100314.94
2023-11-30T06:28:07.833Z,100321.03
2023-11-30T06:30:34.382Z,100327.03
2023-11-30T06:33:00.887Z,100327.00
2023-11-30T06:35:27.424Z,100337.47
2023-11-30T06:37:53.827Z,100335.78
2023-11-30T06:40:20.361Z,100333.09
2023-11-30T06:42:46.797Z,100326.19
2023-11-30T06:45:13.389Z,100332.25
2023-11-30T06:47:42.200Z,100329.66
2023-11-30T06:50:08.911Z,100335.78
2023-11-30T06:52:35.413Z,100336.69
2023-11-30T06:55:03.487Z,100327.13
2023-11-30T06:57:30.792Z,100332.44
2023-11-30T06:59:57.453Z,100330.69
2023-11-30T07:02:24.353Z,100330.69
2023-11-30T07:04:51.029Z,100326.69
2023-11-30T07:07:27.864Z,100320.66
2023-11-30T07:10:01.034Z,100324.78
2023-11-30T07:12:28.340Z,100334.72
2023-11-30T07:14:55.357Z,100333.63
2023-11-30T07:17:25.072Z,100328.50
2023-11-30T07:19:53.533Z,100328.25
2023-11-30T07:22:21.524Z,100328.06
2023-11-30T07:24:48.721Z,100326.94
2023-11-30T07:27:19.121Z,100324.19
2023-11-30T07:29:46.723Z,100324.19
2023-11-30T07:32:16.485Z,100326.22
2023-11-30T07:34:43.800Z,100327.81
2023-11-30T07:37:10.265Z,100331.94
2023-11-30T07:39:37.900Z,100346.84
2023-11-30T07:42:07.588Z,100351.00
2023-11-30T07:44:34.186Z,100350.19
2023-11-30T07:47:01.100Z,100348.50
2023-11-30T07:49:27.580Z,100355.38
2023-11-30T07:51:53.984Z,100350.16
2023-11-30T07:54:20.434Z,100354.63
2023-11-30T07:56:55.659Z,100360.81
2023-11-30T07:59:29.516Z,100358.13
2023-11-30T08:01:56.360Z,100352.03
2023-11-30T08:04:22.992Z,100356.28
2023-11-30T08:06:49.841Z,100353.75
2023-11-30T08:09:16.532Z,100348.56
2023-11-30T08:11:43.213Z,100340.63
2023-11-30T08:14:10.152Z,100348.63
2023-11-30T08:16:41.646Z,100348.91
2023-11-30T08:19:08.545Z,100352.38
2023-11-30T08:21:37.119Z,100356.53
2023-11-30T08:24:05.465Z,100356.41
2023-11-30T08:26:31.964Z,100346.53
2023-11-30T08:28:58.501Z,100338.72
2023-11-30T08:31:25.060Z,100339.72
2023-11-30T08:33:51.940Z,100343.25
2023-11-30T08:36:18.707Z,100340.63
2023-11-30T08:38:45.382Z,100337.16
2023-11-30T08:41:14.180Z,100333.66
2023-11-30T08:43:40.733Z,100337.44
2023-11-30T08:46:07.708Z,100335.31
2023-11-30T08:48:34.419Z,100335.19
2023-11-30T08:51:01.001Z,100333.31
2023-11-30T08:53:27.503Z,100331.44
2023-11-30T08:55:54.102Z,100334.03
2023-11-30T08:58:20.749Z,100328.66
2023-11-30T09:00:47.361Z,100325.03
2023-11-30T09:03:13.878Z,100329.31
2023-11-30T09:05:41.828Z,100329.22
2023-11-30T09:08:08.592Z,100330.06
2023-11-30T09:10:35.373Z,100328.56
2023-11-30T09:13:04.489Z,100326.06
2023-11-30T09:15:32.067Z,100328.66
2023-11-30T09:17:59.940Z,100325.09
2023-11-30T09:20:29.455Z,100331.00
2023-11-30T09:22:56.100Z,100328.44
2023-11-30T09:25:23.055Z,100330.81
2023-11-30T09:27:50.587Z,100334.91
2023-11-30T09:30:17.765Z,100318.16
2023-11-30T09:32:44.536Z,100316.38
2023-11-30T09:35:12.528Z,100324.94
2023-11-30T09:37:39.092Z,100333.47
2023-11-30T09:40:06.752Z,100324.63
2023-11-30T09:42:33.674Z,100327.16
2023-11-30T09:45:01.683Z,100328.75
2023-11-30T09:47:28.566Z,100330.38
2023-11-30T09:49:55.536Z,100325.13
2023-11-30T09:52:22.900Z,100325.91
2023-11-30T09:54:54.218Z,100317.84
2023-11-30T09:57:20.811Z,100320.25
2023-11-30T09:59:47.368Z,100329.69
2023-11-30T10:02:13.973Z,100332.19
2023-11-30T10:04:41.421Z,100323.09
2023-11-30T10:07:08.747Z,100327.00
2023-11-30T10:09:36.940Z,100317.91
2023-11-30T10:12:04.052Z,100319.56
2023-11-30T10:14:30.838Z,100319.66
2023-11-30T10:16:57.508Z,100316.22
2023-11-30T10:19:24.330Z,100315.25
2023-11-30T10:21:51.705Z,100313.13
2023-11-30T10:24:18.537Z,100312.03
2023-11-30T10:26:50.620Z,100314.56
2023-11-30T10:29:19.696Z,100315.31
2023-11-30T10:31:50.696Z,100318.84
2023-11-30T10:34:29.615Z,100314.50
2023-11-30T10:37:01.749Z,100315.22
2023-11-30T10:39:36.913Z,100321.16
2023-11-30T10:42:12.437Z,100320.16
2023-11-30T10:44:41.719Z,100321.03
2023-11-30T10:47:12.474Z,100322.44
2023-11-30T10:49:39.989Z,100316.50
2023-11-30T10:52:07.862Z,100314.81
2023-11-30T10:55:08.024Z,100319.13
2023-11-30T10:57:34.627Z,100321.84
2023-11-30T11:00:01.322Z,100319.13
2023-11-30T11:02:43.208Z,100326.25
2023-11-30T11:05:17.087Z,100320.91
2023-11-30T11:07:52.751Z,100318.13
2023-11-30T11:10:26.066Z,100320.47
2023-11-30T11:12:52.983Z,100324.94
2023-11-30T11:15:22.210Z,100323.38
2023-11-30T11:17:50.836Z,100325.50
2023-11-30T11:20:26.731Z,100325.94
2023-11-30T11:23:08.638Z,100327.53
2023-11-30T11:25:47.567Z,100331.50
2023-11-30T11:28:18.189Z,100328.72
2023-11-30T11:30:49.660Z,100332.53
2023-11-30T11:33:18.198Z,100337.66
2023-11-30T11:35:45.101Z,100339.19
2023-11-30T11:38:11.932Z,100336.72
2023-11-30T11:40:40.669Z,100333.31
2023-11-30T11:43:07.197Z,100335.94
2023-11-30T11:45:34.551Z,100328.13
2023-11-30T11:48:02.835Z,100327.19
2023-11-30T11:50:29.868Z,100327.91
2023-11-30T11:53:01.101Z,100328.75
2023-11-30T11:55:27.854Z,100325.50
2023-11-30T11:57:57.200Z,100323.53
2023-11-30T12:00:25.569Z,100319.50
2023-11-30T12:03:03.968Z,100319.34
2023-11-30T12:05:30.590Z,100313.44
2023-11-30T12:07:59.379Z,100315.88
2023-11-30T12:10:26.809Z,100323.94
2023-11-30T12:12:54.211Z,100308.34
2023-11-30T12:15:20.984Z,100304.88
2023-11-30T12:17:47.603Z,100307.63
2023-11-30T12:20:15.166Z,100307.78
2023-11-30T12:22:41.670Z,100311.47
2023-11-30T12:25:08.508Z,100313.63
2023-11-30T12:27:34.970Z,100311.00
2023-11-30T12:30:01.600Z,100309.19
2023-11-30T12:32:28.182Z,100297.66
2023-11-30T12:34:57.560Z,100298.13
2023-11-30T12:37:24.384Z,100289.91
2023-11-30T12:39:50.883Z,100296.44
2023-11-30T12:42:17.512Z,100292.41
2023-11-30T12:44:44.471Z,100295.59
2023-11-30T12:47:12.359Z,100299.63
2023-11-30T12:49:39.459Z,100298.00
2023-11-30T12:52:07.148Z,100300.41
2023-11-30T12:54:33.768Z,100298.63
2023-11-30T12:57:00.300Z,100303.47
2023-11-30T12:59:26.757Z,100303.22
2023-11-30T13:01:56.036Z,100294.47
2023-11-30T13:04:23.912Z,100301.34
2023-11-30T13:06:51.519Z,100296.28
2023-11-30T13:09:18.254Z,100308.72
2023-11-30T13:11:44.864Z,100309.22
2023-11-30T13:14:11.766Z,100310.75
2023-11-30T13:16:38.258Z,100302.25
2023-11-30T13:19:05.180Z,100315.31
2023-11-30T13:21:32.408Z,100314.31
2023-11-30T13:23:58.972Z,100320.56
2023-11-30T13:26:25.604Z,100320.19
2023-11-30T13:28:52.912Z,100333.44
2023-11-30T13:31:20.205Z,100318.22
2023-11-30T13:33:46.810Z,100315.78
2023-11-30T13:36:13.398Z,100315.78
2023-11-30T13:38:41.904Z,100324.31
2023-11-30T13:41:08.846Z,100329.41
2023-11-30T13:43:35.470Z,100331.19
2023-11-30T13:46:04.465Z,100326.00
2023-11-30T13:48:31.317Z,100317.28
2023-11-30T13:51:00.919Z,100314.44
2023-11-30T13:53:29.418Z,100313.84
2023-11-30T13:55:57.839Z,100316.25
2023-11-30T13:58:25.504Z,100323.09
2023-11-30T14:00:52.238Z,100319.66
2023-11-30T14:03:18.928Z,100323.63
2023-11-30T14:05:45.463Z,100324.94
2023-11-30T14:08:11.967Z,100326.06
2023-11-30T14:10:39.304Z,100320.81
2023-11-30T14:13:06.692Z,100325.63
2023-11-30T14:15:33.500Z,100315.72
2023-11-30T14:18:00.111Z,100315.53
2023-11-30T14:20:26.734Z,100317.34
2023-11-30T14:22:53.217Z,100314.53
2023-11-30T14:25:19.656Z,100317.03
2023-11-30T14:27:46.601Z,100323.78
2023-11-30T14:30:14.296Z,100320.16
2023-11-30T14:32:41.476Z,100324.50
2023-11-30T14:35:08.870Z,100322.41
2023-11-30T14:37:35.624Z,100324.25
2023-11-30T14:40:02.809Z,100332.28
2023-11-30T14:42:29.393Z,100336.53
2023-11-30T14:44:55.992Z,100336.03
2023-11-30T14:47:26.856Z,100345.66
2023-11-30T14:49:54.782Z,100345.22
2023-11-30T14:52:21.298Z,100337.09
2023-11-30T14:54:53.137Z,100343.97
2023-11-30T14:57:20.836Z,100356.38
2023-11-30T14:59:50.878Z,100352.03
2023-11-30T15:02:17.497Z,100344.09
2023-11-30T15:04:44.267Z,100344.69
2023-11-30T15:07:10.929Z,100351.44
2023-11-30T15:09:37.673Z,100346.78
2023-11-30T15:12:07.271Z,100354.72
2023-11-30T15:14:33.737Z,100352.28
2023-11-30T15:17:00.326Z,100352.91
2023-11-30T15:19:26.815Z,100346.25
2023-11-30T15:21:53.374Z,100354.00
2023-11-30T15:24:20.347Z,100352.53
2023-11-30T15:26:46.779Z,100355.13
2023-11-30T15:29:13.289Z,100352.94
2023-11-30T15:31:39.764Z,100345.06
2023-11-30T15:34:06.454Z,100340.34
2023-11-30T15:36:34.566Z,100335.78
2023-11-30T15:39:12.555Z,100345.63
2023-11-30T15:41:44.822Z,100349.19
2023-11-30T15:44:11.313Z,100356.09
2023-11-30T15:46:38.100Z,100354.69
2023-11-30T15:49:04.607Z,100350.56
2023-11-30T15:51:31.140Z,100339.69
2023-11-30T15:53:57.755Z,100347.25
2023-11-30T15:56:24.280Z,100350.03
2023-11-30T15:58:50.740Z,100352.31
2023-11-30T16:01:18.611Z,100361.97
2023-11-30T16:03:45.133Z,100362.41
2023-11-30T16:06:12.079Z,100358.56
2023-11-30T16:08:38.716Z,100366.50
2023-11-30T16:11:13.088Z,100366.97
2023-11-30T16:13:40.740Z,100365.91
2023-11-30T16:16:07.847Z,100364.53
2023-11-30T16:18:34.386Z,100361.34
2023-11-30T16:21:00.851Z,100352.97
2023-11-30T16:23:27.503Z,100357.56
2023-11-30T16:25:54.033Z,100357.19
2023-11-30T16:28:20.502Z,100364.16
2023-11-30T16:30:47.099Z,100357.28
2023-11-30T16:33:13.666Z,100372.72
2023-11-30T16:35:40.238Z,100375.16
2023-11-30T16:38:07.056Z,100370.72
2023-11-30T16:40:33.550Z,100373.88
2023-11-30T16:43:00.079Z,100363.56
2023-11-30T16:45:27.720Z,100361.47
2023-11-30T16:47:55.538Z,100360.34
2023-11-30T16:50:22.010Z,100352.47
2023-11-30T16:52:49.408Z,100357.66
2023-11-30T16:55:16.140Z,100353.34
2023-11-30T16:57:43.186Z,100357.50
2023-11-30T17:00:10.349Z,100360.41
2023-11-30T17:02:36.846Z,100357.47
2023-11-30T17:05:03.640Z,100354.63
2023-11-30T17:07:30.296Z,100345.19
2023-11-30T17:09:56.759Z,100343.28
2023-11-30T17:12:24.394Z,100345.91
2023-11-30T17:14:50.843Z,100348.13
2023-11-30T17:17:17.338Z,100344.88
2023-11-30T17:19:43.816Z,100347.19
2023-11-30T17:22:12.012Z,100351.41
2023-11-30T17:24:43.030Z,100348.03
2023-11-30T17:27:12.625Z,100354.69
2023-11-30T17:29:40.890Z,100358.59
2023-11-30T17:32:08.025Z,100360.63
2023-11-30T17:34:35.431Z,100361.72
2023-11-30T17:37:02.234Z,100365.06
2023-11-30T17:39:30.834Z,100360.78
2023-11-30T17:41:58.050Z,100368.59
2023-11-30T17:44:24.686Z,100370.88
2023-11-30T17:46:53.261Z,100375.38
2023-11-30T17:49:24.035Z,100370.31
2023-11-30T17:51:52.484Z,100376.25
2023-11-30T17:54:19.732Z,100380.78
2023-11-30T17:56:46.373Z,100379.22
2023-11-30T17:59:13.336Z,100384.41
2023-11-30T18:01:40.088Z,100386.53
2023-11-30T18:04:06.700Z,100380.94
2023-11-30T18:06:33.468Z,100375.22
2023-11-30T18:09:00.187Z,100376.19
2023-11-30T18:11:26.640Z,100382.22
2023-11-30T18:13:53.264Z,100393.66
2023-11-30T18:16:19.744Z,100387.53
2023-11-30T18:18:47.180Z,100384.47
2023-11-30T18:21:13.934Z,100392.50
2023-11-30T18:23:40.607Z,100383.13
2023-11-30T18:26:07.192Z,100383.91
2023-11-30T18:28:33.900Z,100387.34
2023-11-30T18:31:11.888Z,100394.88
2023-11-30T18:33:47.994Z,100394.84
2023-11-30T18:36:17.531Z,100398.00
2023-11-30T18:38:50.795Z,100400.44
2023-11-30T18:41:19.873Z,100404.56
2023-11-30T18:43:49.124Z,100403.34
2023-11-30T18:46:16.757Z,100405.44
2023-11-30T18:48:44.357Z,100402.16
2023-11-30T18:51:11.498Z,100399.19
2023-11-30T18:53:40.639Z,100411.44
2023-11-30T18:56:07.806Z,100402.66
2023-11-30T18:58:34.328Z,100405.06
2023-11-30T19:01:05.136Z,100412.38
2023-11-30T19:03:33.051Z,100415.00
2023-11-30T19:05:59.836Z,100414.72
2023-11-30T19:08:26.465Z,100415.47
2023-11-30T19:10:53.213Z,100413.66
2023-11-30T19:13:19.693Z,100414.38
2023-11-30T19:15:46.489Z,100419.38
2023-11-30T19:18:15.394Z,100418.69
2023-11-30T19:20:45.219Z,100418.22
2023-11-30T19:23:16.507Z,100427.13
2023-11-30T19:25:43.872Z,100421.63
2023-11-30T19:28:15.655Z,100418.69
2023-11-30T19:30:45.902Z,100414.28
2023-11-30T19:33:14.862Z,100412.59
2023-11-30T19:35:43.980Z,100411.69
2023-11-30T19:38:20.603Z,100410.09
2023-11-30T19:40:48.583Z,100409.91
2023-11-30T19:43:26.465Z,100408.56
2023-11-30T19:46:03.632Z,100416.91
2023-11-30T19:48:31.678Z,100420.13
2023-11-30T19:51:27.643Z,100429.63
2023-11-30T19:54:08.425Z,100427.00
2023-11-30T19:56:42.163Z,100430.94
2023-11-30T19:59:41.635Z,100427.47
2023-11-30T20:02:07.558Z,100436.91
2023-11-30T20:04:46.789Z,100432.53
2023-11-30T20:07:18.245Z,100438.84
2023-11-30T20:09:46.573Z,100439.16
2023-11-30T20:12:13.352Z,100448.88
2023-11-30T20:14:42.058Z,100452.47
2023-11-30T20:17:21.288Z,100454.84
2023-11-30T20:19:49.039Z,100447.72
2023-11-30T20:22:20.401Z,100448.41
2023-11-30T20:24:57.805Z,100443.56
2023-11-30T20:27:28.116Z,100444.38
2023-11-30T20:30:06.965Z,100442.44
2023-11-30T20:32:44.153Z,100455.22
2023-11-30T20:35:11.189Z,100455.22
2023-11-30T20:37:37.829Z,100442.03
2023-11-30T20:40:04.996Z,100458.25
2023-11-30T20:42:31.635Z,100450.56
2023-11-30T20:44:58.234Z,100455.41
2023-11-30T20:47:25.765Z,100463.31
2023-11-30T20:49:53.192Z,100468.13
2023-11-30T20:52:34.533Z,100460.50
2023-11-30T20:55:08.737Z,100452.97
2023-11-30T20:58:12.104Z,100454.50
2023-11-30T21:00:40.995Z,100465.56
2023-11-30T21:03:48.213Z,100460.22
2023-11-30T21:06:14.046Z,100459.63
2023-11-30T21:08:40.657Z,100469.22
2023-11-30T21:11:07.484Z,100469.88
2023-11-30T21:14:26.519Z,100469.72
2023-11-30T21:16:25.209Z,100467.69
2023-11-30T21:18:51.898Z,100464.84
2023-11-30T21:21:18.550Z,100468.84
2023-11-30T21:23:45.006Z,100475.16
2023-11-30T21:26:28.056Z,100481.34
2023-11-30T21:29:01.597Z,100489.09
2023-11-30T21:31:28.227Z,100489.09
2023-11-30T21:33:54.958Z,100496.84
2023-11-30T21:36:21.848Z,100490.91
2023-11-30T21:38:48.329Z,100495.53
2023-11-30T21:41:16.603Z,100493.56
2023-11-30T21:43:43.967Z,100497.94
2023-11-30T21:46:11.964Z,100499.09
2023-11-30T21:48:38.736Z,100505.56
2023-11-30T21:51:05.849Z,100503.88
2023-11-30T21:53:35.628Z,100509.34
2023-11-30T21:56:02.697Z,100511.84
2023-11-30T21:58:29.473Z,100508.59
2023-11-30T22:00:56.342Z,100514.53
2023-11-30T22:03:23.770Z,100522.16
2023-11-30T22:05:51.843Z,100523.81
2023-11-30T22:08:18.397Z,100525.41
2023-11-30T22:10:46.689Z,100528.81
2023-11-30T22:13:13.282Z,100528.75
2023-11-30T22:15:40.052Z,100521.91
2023-11-30T22:18:06.735Z,100525.13
2023-11-30T22:20:33.269Z,100525.22
2023-11-30T22:22:59.867Z,100524.47
2023-11-30T22:25:26.488Z,100526.97
2023-11-30T22:27:53.190Z,100524.66
2023-11-30T22:30:19.787Z,100529.34
2023-11-30T22:32:46.289Z,100531.84
2023-11-30T22:35:15.673Z,100527.25
2023-11-30T22:37:42.219Z,100535.47
2023-11-30T22:40:09.248Z,100535.22
2023-11-30T22:42:36.311Z,100547.25
2023-11-30T22:45:05.699Z,100549.31
2023-11-30T22:47:32.468Z,100553.75
2023-11-30T22:49:58.946Z,100546.63
2023-11-30T22:52:26.990Z,100540.97
2023-11-30T22:54:53.745Z,100543.59
2023-11-30T22:57:20.367Z,100540.06
2023-11-30T22:59:46.972Z,100542.53
2023-11-30T23:02:13.606Z,100547.78
2023-11-30T23:04:40.491Z,100556.16
2023-11-30T23:07:07.883Z,100557.75
2023-11-30T23:09:34.600Z,100557.72
2023-11-30T23:12:01.340Z,100564.06
2023-11-30T23:14:30.257Z,100560.53
2023-11-30T23:16:56.648Z,100562.13
2023-11-30T23:19:23.356Z,100564.50
2023-11-30T23:21:49.912Z,100555.59
2023-11-30T23:24:23.292Z,100565.09
2023-11-30T23:26:55.398Z,100572.16
2023-11-30T23:29:22.363Z,100572.06
2023-11-30T23:31:50.142Z,100572.00
2023-11-30T23:34:16.675Z,100564.44
2023-11-30T23:36:43.344Z,100568.06
2023-11-30T23:39:09.854Z,100566.47
2023-11-30T23:41:36.385Z,100563.66
2023-11-30T23:44:02.846Z,100572.16
2023-11-30T23:46:31.047Z,100572.44
2023-11-30T23:48:58.475Z,100577.72
2023-11-30T23:51:24.978Z,100580.22
2023-11-30T23:53:52.007Z,100587.22
2023-11-30T23:56:18.534Z,100578.44
2023-11-30T23:58:45.036Z,100580.91
